Barstow Daggett Airport
KDAG : rendu visible

Aérodrome :











RETROUVEZ-NOUS SUR...

 
LOGIN :

S'inscrire | Disclaimer

   EN    FR    IT 

 









Légende :    VFR   VFR Marginal   IFR   IFR Intensif   IFR Très Intensif
Visi : 
Plafond : 
>= 8 km
>= 3000ft
5 à 8 km
1000 à 3000 ft
1500m à 5 km
500 à 1000 ft
800 à 1500m
200 à 500 ft
< 800m
< 200 ft
Symboles :   Orages  Brouillard  Fortes neiges  Fortes précipitations  Vent > 20 kt






- Altitude de l'aérodrome : 1930 ft


KDAG - Barstow Daggett

DERNIER METAR :
  • 080950Z AUTO 00000KT 10SM -RA BKN032 OVC080 12/09 A2994 RMK AO2 RAB30 SLP130 P0001 T01170089

METARs EXPIRÉS :
  • 080934Z AUTO 21003KT 10SM -RA OVC030 12/09 A2995 RMK AO2 RAB30 P0000 T01170089
  • 080850Z AUTO 31005KT 10SM FEW013 OVC025 12/08 A2995 RMK AO2 RAB0751E05 SLP132 P0000 60008 T01170083 58003
  • 080834Z AUTO 34004KT 10SM SCT013 OVC023 12/10 A2995 RMK AO2 RAB0751E05 P0000 T01170100
  • 080815Z AUTO 00000KT 10SM BKN013 BKN024 OVC100 12/10 A2996 RMK AO2 RAB0751E05 P0000 T01170100
  • 080809Z AUTO 00000KT 10SM SCT013 BKN024 OVC100 12/11 A2996 RMK AO2 RAB0751E05 P0000 T01170106
  • 080750Z AUTO 00000KT 10SM FEW012 BKN090 OVC100 12/11 A2996 RMK AO2 RAE33 SLP134 P0007 T01170106 401560089

TAF KDAG
Valide du 08 à 09h jusqu'au 09 à 06h UTC


080851Z 0809/0906 VRB05KT P6SM VCSH BKN020 OVC030
FM081400 28008KT 5SM -RA BR SCT020 BKN030
FM082300 27010G16KT P6SM -SHRA SCT030 BKN050



MET'MAP, la Météo Aéronautique d'un coup d'oeil ! - Copyright ORBIFLY Décembre 2007 - Disclaimer

ORBIFLY MET'MAP TEAM :

Programmation & Développement : Alexandra Zaïnal
Sur une idée originale de : Baudouin d'Aumeries
Assistance à la programmation : Marc-Olivier Méhu
Soutien technique & logistique : Manuel Goepfert

Contact : metmap@orbifly.com




SOURCES & CREDITS :

   NOAA       Earth
Advisory